Time;durP1;ratioP1;P1;durP2;ratioP2;P2;SDS_P1;SDS_P2;PMS_P1;PMS_P2;Temp;Humidity;BMP_temperature;BMP_pressure;BME280_temperature;BME280_humidity;BME280_pressure;Samples;Min_cycle;Max_cycle;Signal;HPM_P1;HPM_P2
2023/08/25 00:00:14;;;;;;;7.40;1.33;;;;;;;15.19;75.17;100407.47;5011969;28;20046;-46
2023/08/25 00:02:41;;;;;;;4.95;1.38;;;;;;;15.25;75.16;100410.69;5011911;28;20042;-43
2023/08/25 00:05:09;;;;;;;2.92;0.73;;;;;;;15.27;75.14;100416.69;5012294;28;20803;-45
2023/08/25 00:07:36;;;;;;;6.30;1.15;;;;;;;15.25;75.32;100416.25;5008707;28;20049;-44
2023/08/25 00:10:03;;;;;;;2.95;1.02;;;;;;;15.22;75.59;100412.25;5010560;28;20050;-46
2023/08/25 00:12:30;;;;;;;3.38;0.90;;;;;;;15.23;75.66;100419.44;5011951;28;20439;-44
2023/08/25 00:14:57;;;;;;;3.72;1.02;;;;;;;15.21;75.74;100413.44;5011740;28;20041;-46
2023/08/25 00:17:23;;;;;;;3.10;1.20;;;;;;;15.17;75.87;100415.38;5011954;28;20042;-44
2023/08/25 00:19:51;;;;;;;7.30;1.33;;;;;;;15.16;76.08;100407.41;5011802;28;20037;-45
2023/08/25 00:22:18;;;;;;;11.93;2.17;;;;;;;15.15;76.19;100411.38;4994335;28;20050;-44
2023/08/25 00:24:45;;;;;;;3.35;1.42;;;;;;;15.13;76.56;100406.22;5014916;28;20503;-44
2023/08/25 00:27:12;;;;;;;4.13;1.23;;;;;;;15.16;76.61;100408.22;5020925;28;20499;-45
2023/08/25 00:29:39;;;;;;;3.40;1.45;;;;;;;15.16;76.53;100413.81;5011218;28;20519;-45
2023/08/25 00:32:05;;;;;;;5.88;1.20;;;;;;;15.15;76.78;100412.19;5011309;28;20420;-44
2023/08/25 00:34:32;;;;;;;6.38;0.98;;;;;;;15.13;76.83;100403.41;5009727;28;20064;-47
2023/08/25 00:37:00;;;;;;;4.88;1.13;;;;;;;15.14;76.84;100407.78;5008921;28;20128;-44
2023/08/25 00:39:31;;;;;;;3.10;1.00;;;;;;;15.17;76.78;100409.81;5010737;28;20041;-47
2023/08/25 00:41:58;;;;;;;5.60;1.75;;;;;;;15.18;76.84;100411.44;5011266;28;20050;-45
2023/08/25 00:44:24;;;;;;;3.67;2.08;;;;;;;15.22;76.93;100408.69;5010406;28;20054;-44
2023/08/25 00:46:52;;;;;;;2.70;1.15;;;;;;;15.21;77.16;100407.06;5009444;28;20500;-45
2023/08/25 00:49:20;;;;;;;2.95;1.02;;;;;;;15.24;77.28;100407.13;5000806;28;20100;-45
2023/08/25 00:51:48;;;;;;;7.72;1.88;;;;;;;15.26;77.12;100401.13;5010555;28;20064;-45
2023/08/25 00:54:15;;;;;;;4.32;0.98;;;;;;;15.22;77.18;100401.09;4993574;28;20605;-45
2023/08/25 00:56:42;;;;;;;3.72;1.02;;;;;;;15.21;77.32;100396.72;5010957;28;20080;-44
2023/08/25 00:59:09;;;;;;;2.05;1.00;;;;;;;15.22;77.41;100401.09;5001157;28;20108;-45
2023/08/25 01:01:36;;;;;;;4.72;1.40;;;;;;;15.17;77.48;100398.66;5011016;28;20141;-44
2023/08/25 01:04:03;;;;;;;3.67;1.10;;;;;;;15.15;77.68;100406.63;5011418;28;20045;-44
2023/08/25 01:06:30;;;;;;;5.95;2.67;;;;;;;15.13;77.83;100403.41;5011263;28;20112;-44
2023/08/25 01:08:58;;;;;;;4.88;1.20;;;;;;;15.16;77.76;100401.84;5011306;28;20058;-45
2023/08/25 01:11:28;;;;;;;2.15;0.95;;;;;;;15.14;77.82;100399.44;5010918;28;20459;-44
2023/08/25 01:14:11;;;;;;;4.18;1.10;;;;;;;15.15;77.98;100397.44;5011382;28;20165;-45
2023/08/25 01:16:57;;;;;;;10.07;1.23;;;;;;;15.14;78.12;100393.84;5011850;28;20041;-44
2023/08/25 01:19:41;;;;;;;5.47;0.82;;;;;;;15.13;78.21;100395.06;5011480;28;20073;-47
2023/08/25 01:22:16;;;;;;;2.47;0.85;;;;;;;15.10;78.26;100395.81;5011546;28;20061;-45
2023/08/25 01:24:47;;;;;;;6.47;1.40;;;;;;;15.08;78.50;100389.81;5010241;28;20057;-45
2023/08/25 01:27:15;;;;;;;1.48;0.85;;;;;;;15.05;78.31;100392.56;5010111;28;20065;-45
2023/08/25 01:29:43;;;;;;;2.35;1.02;;;;;;;15.03;78.59;100392.97;5011566;28;20049;-44
2023/08/25 01:32:10;;;;;;;2.80;1.02;;;;;;;15.01;78.61;100383.38;5015084;28;20041;-44
2023/08/25 01:34:37;;;;;;;3.40;1.05;;;;;;;15.01;78.69;100386.94;5015528;28;20126;-45
2023/08/25 01:37:17;;;;;;;3.50;1.38;;;;;;;15.01;78.72;100386.19;4997476;28;20054;-44
2023/08/25 01:39:48;;;;;;;3.78;1.20;;;;;;;14.99;78.83;100380.16;5014684;28;20538;-45
2023/08/25 01:42:19;;;;;;;12.30;1.67;;;;;;;14.95;78.91;100388.50;5014686;28;20042;-45
2023/08/25 01:44:47;;;;;;;8.75;1.33;;;;;;;14.93;79.01;100385.28;5015081;28;20112;-44
2023/08/25 01:47:19;;;;;;;7.45;1.23;;;;;;;14.88;79.19;100374.47;4995545;28;20060;-44
2023/08/25 01:49:47;;;;;;;7.07;1.00;;;;;;;14.90;79.10;100377.72;5006944;28;20049;-45
2023/08/25 01:52:14;;;;;;;5.65;1.40;;;;;;;14.88;79.31;100379.28;5013036;28;20041;-45
2023/08/25 01:54:42;;;;;;;4.32;1.00;;;;;;;14.87;79.22;100366.50;5014600;28;20459;-46
2023/08/25 01:57:09;;;;;;;2.13;1.00;;;;;;;14.83;79.47;100372.03;5014489;28;20038;-45
2023/08/25 01:59:36;;;;;;;0.90;0.88;;;;;;;14.79;79.41;100365.66;5014538;28;20050;-47
2023/08/25 02:02:03;;;;;;;2.22;0.90;;;;;;;14.74;79.44;100363.22;5014115;28;20062;-44
2023/08/25 02:04:31;;;;;;;4.40;1.25;;;;;;;14.73;79.52;100361.59;4996850;28;20065;-45
2023/08/25 02:06:57;;;;;;;7.93;1.83;;;;;;;14.72;79.61;100359.97;5011841;28;20037;-44
2023/08/25 02:09:25;;;;;;;4.88;1.30;;;;;;;14.73;79.75;100355.22;5014209;28;20046;-46
2023/08/25 02:11:51;;;;;;;9.02;1.52;;;;;;;14.71;79.93;100363.16;5013917;28;20034;-45
2023/08/25 02:14:18;;;;;;;2.13;1.23;;;;;;;14.71;80.17;100363.97;5014273;28;20045;-45
2023/08/25 02:16:45;;;;;;;8.65;1.30;;;;;;;14.73;80.09;100352.44;5005227;28;20451;-45
2023/08/25 02:19:12;;;;;;;5.28;1.63;;;;;;;14.73;79.92;100347.66;5014068;28;20080;-44
2023/08/25 02:21:39;;;;;;;3.88;1.30;;;;;;;14.69;80.07;100349.63;5012931;28;20443;-45
2023/08/25 02:24:05;;;;;;;7.05;1.17;;;;;;;14.70;80.04;100351.22;5013709;28;20511;-45
2023/08/25 02:26:32;;;;;;;6.88;1.27;;;;;;;14.68;80.17;100348.00;5014189;28;20073;-45
2023/08/25 02:28:59;;;;;;;1.40;0.82;;;;;;;14.68;79.95;100350.78;5013772;28;20111;-44
2023/08/25 02:31:26;;;;;;;3.97;1.15;;;;;;;14.71;80.13;100340.88;5013892;28;20373;-45
2023/08/25 02:33:52;;;;;;;1.67;0.88;;;;;;;14.71;80.05;100344.47;5013840;28;20074;-45
2023/08/25 02:36:19;;;;;;;2.47;0.90;;;;;;;14.68;79.81;100338.84;5013935;28;20041;-45
2023/08/25 02:38:46;;;;;;;5.57;1.00;;;;;;;14.60;79.70;100337.97;5013740;28;20507;-44
2023/08/25 02:41:13;;;;;;;5.18;1.05;;;;;;;14.52;79.92;100331.53;5013845;28;20124;-44
2023/08/25 02:43:40;;;;;;;4.68;1.13;;;;;;;14.47;79.91;100336.63;4994020;28;20054;-44
2023/08/25 02:46:07;;;;;;;4.32;0.80;;;;;;;14.44;79.96;100320.69;5006447;28;20089;-45
2023/08/25 02:48:33;;;;;;;5.00;1.23;;;;;;;14.39;79.98;100329.38;5013559;28;20196;-45
2023/08/25 02:51:00;;;;;;;3.33;1.15;;;;;;;14.35;79.96;100323.00;5003080;28;20127;-45
2023/08/25 02:53:27;;;;;;;2.45;0.65;;;;;;;14.33;80.03;100322.53;5013447;28;20046;-44
2023/08/25 02:55:53;;;;;;;3.17;1.08;;;;;;;14.34;80.13;100318.59;5013672;28;20045;-44
2023/08/25 02:58:20;;;;;;;6.60;1.05;;;;;;;14.30;80.30;100321.28;5013570;28;20096;-45
2023/08/25 03:00:47;;;;;;;4.55;1.00;;;;;;;14.33;80.49;100322.53;5049980;23;20073;-45
2023/08/25 03:03:14;;;;;;;1.88;0.93;;;;;;;14.29;80.36;100310.53;4993637;28;20089;-44
2023/08/25 03:05:41;;;;;;;3.40;1.42;;;;;;;14.25;80.48;100312.47;4993844;28;20046;-44
2023/08/25 03:08:15;;;;;;;2.08;1.10;;;;;;;14.19;80.61;100302.88;4993433;28;20051;-45
2023/08/25 03:10:44;;;;;;;4.60;1.45;;;;;;;14.15;80.74;100302.03;4993571;28;20034;-45
2023/08/25 03:13:11;;;;;;;6.30;1.40;;;;;;;14.08;80.99;100301.94;4991879;28;20056;-45
2023/08/25 03:15:38;;;;;;;6.30;1.90;;;;;;;14.01;81.10;100309.03;4994026;28;20038;-43
2023/08/25 03:18:05;;;;;;;4.60;1.75;;;;;;;13.93;81.49;100304.53;4993499;28;20499;-45
2023/08/25 03:20:32;;;;;;;2.95;1.85;;;;;;;13.87;81.63;100303.25;4993429;28;20092;-44
2023/08/25 03:23:00;;;;;;;4.50;1.75;;;;;;;13.83;81.77;100302.44;4993066;28;20519;-44
2023/08/25 03:25:27;;;;;;;5.45;1.80;;;;;;;13.83;81.74;100302.44;4993251;28;20050;-45
2023/08/25 03:27:54;;;;;;;4.53;1.73;;;;;;;13.81;81.97;100304.78;4993210;28;20045;-45
2023/08/25 03:30:21;;;;;;;4.93;2.00;;;;;;;13.80;82.22;100303.19;4976297;28;20070;-44
2023/08/25 03:32:47;;;;;;;6.10;1.85;;;;;;;13.76;82.29;100307.91;4992535;28;20077;-45
2023/08/25 03:35:14;;;;;;;2.67;1.75;;;;;;;13.75;82.49;100309.06;4993193;28;20451;-45
2023/08/25 03:37:41;;;;;;;6.25;2.20;;;;;;;13.76;82.39;100307.91;4992993;28;20467;-45
2023/08/25 03:40:10;;;;;;;4.00;1.70;;;;;;;13.76;82.83;100304.31;4993171;28;20507;-44
2023/08/25 03:42:37;;;;;;;3.92;1.27;;;;;;;13.73;82.83;100308.66;4992719;28;20133;-47
2023/08/25 03:45:05;;;;;;;3.25;1.77;;;;;;;13.70;83.20;100297.47;4992207;28;20046;-45
2023/08/25 03:47:32;;;;;;;7.80;1.90;;;;;;;13.73;83.32;100294.75;4992771;28;20085;-45
2023/08/25 03:49:59;;;;;;;5.97;1.60;;;;;;;13.76;83.47;100288.44;4992725;28;20404;-45
2023/08/25 03:52:26;;;;;;;11.90;2.92;;;;;;;13.75;83.42;100289.59;4991892;28;20039;-45
2023/08/25 03:54:53;;;;;;;3.58;1.50;;;;;;;13.77;83.54;100284.47;4992872;28;20046;-44
2023/08/25 03:57:20;;;;;;;5.07;2.10;;;;;;;13.78;83.52;100286.06;4975117;28;20104;-45
2023/08/25 03:59:46;;;;;;;7.90;1.92;;;;;;;13.80;83.58;100288.47;4992729;28;20131;-46
2023/08/25 04:02:13;;;;;;;4.72;2.15;;;;;;;13.83;83.64;100285.72;4992307;28;20571;-45
2023/08/25 04:04:40;;;;;;;5.28;1.20;;;;;;;13.85;83.38;100288.94;4992492;28;20056;-46
2023/08/25 04:07:07;;;;;;;2.30;1.35;;;;;;;13.85;83.40;100277.81;4993000;28;20121;-45
2023/08/25 04:09:35;;;;;;;6.32;1.60;;;;;;;13.84;83.27;100290.13;4992817;28;20057;-44
2023/08/25 04:12:01;;;;;;;4.90;1.00;;;;;;;13.81;83.33;100281.72;4992701;28;20045;-45
2023/08/25 04:14:28;;;;;;;6.53;1.15;;;;;;;13.81;83.52;100278.94;4991771;28;20124;-44
2023/08/25 04:16:57;;;;;;;2.90;1.42;;;;;;;13.79;83.35;100284.88;4989856;28;20046;-49
2023/08/25 04:19:24;;;;;;;5.20;1.38;;;;;;;13.81;83.34;100274.19;4992355;28;20701;-44
2023/08/25 04:21:51;;;;;;;4.30;1.45;;;;;;;13.85;83.04;100277.00;4992613;28;20050;-46
2023/08/25 04:24:19;;;;;;;4.45;1.40;;;;;;;13.88;83.07;100273.47;4992574;28;20104;-47
2023/08/25 04:26:46;;;;;;;3.78;1.25;;;;;;;13.84;82.87;100273.44;4992235;28;20046;-45
2023/08/25 04:29:13;;;;;;;7.53;1.80;;;;;;;13.83;82.85;100269.03;4991932;28;20050;-45
2023/08/25 04:31:40;;;;;;;4.88;1.25;;;;;;;13.82;82.86;100273.00;4992224;28;20125;-44
2023/08/25 04:34:06;;;;;;;2.95;1.35;;;;;;;13.78;82.94;100265.78;4991891;28;20064;-47
2023/08/25 04:36:34;;;;;;;4.18;1.63;;;;;;;13.77;83.08;100259.41;4973850;28;20054;-44
2023/08/25 04:39:01;;;;;;;3.67;1.27;;;;;;;13.76;82.85;100260.63;4992044;28;20053;-45
2023/08/25 04:41:27;;;;;;;6.88;1.17;;;;;;;13.74;82.70;100260.16;4992655;28;20034;-46
2023/08/25 04:43:54;;;;;;;4.03;1.40;;;;;;;13.74;82.99;100259.38;4991837;28;20572;-45
2023/08/25 04:46:21;;;;;;;5.13;1.40;;;;;;;13.69;82.78;100254.94;4991803;28;20054;-45
2023/08/25 04:48:48;;;;;;;7.13;2.55;;;;;;;13.67;82.87;100251.75;4974319;28;20047;-45
2023/08/25 04:51:14;;;;;;;5.15;1.63;;;;;;;13.65;82.85;100245.75;4992332;28;20050;-45
2023/08/25 04:53:41;;;;;;;4.53;1.35;;;;;;;13.65;82.97;100242.97;4991975;28;20097;-46
2023/08/25 04:56:08;;;;;;;8.98;2.28;;;;;;;13.64;82.80;100243.34;4991877;28;20053;-45
2023/08/25 04:58:36;;;;;;;6.18;1.65;;;;;;;13.66;82.72;100247.34;4992191;28;20578;-45
2023/08/25 05:01:03;;;;;;;3.80;1.20;;;;;;;13.67;82.63;100248.16;4992023;28;20058;-45
2023/08/25 05:03:30;;;;;;;2.17;1.45;;;;;;;13.69;82.40;100237.44;4974401;28;20053;-45
2023/08/25 05:05:57;;;;;;;3.80;1.80;;;;;;;13.69;82.57;100240.22;4996324;28;20050;-44
2023/08/25 05:08:24;;;;;;;5.63;1.38;;;;;;;13.68;82.43;100235.84;4994215;28;20069;-44
2023/08/25 05:10:51;;;;;;;4.25;1.40;;;;;;;13.68;82.21;100239.44;4995768;28;20052;-46
2023/08/25 05:13:18;;;;;;;3.58;1.70;;;;;;;13.67;82.29;100246.19;4995386;28;20077;-46
2023/08/25 05:15:44;;;;;;;4.30;1.73;;;;;;;13.64;82.14;100233.03;4987939;28;20519;-46
2023/08/25 05:18:11;;;;;;;6.20;2.95;;;;;;;13.67;82.29;100237.03;4978504;28;20041;-45
2023/08/25 05:20:38;;;;;;;2.40;1.60;;;;;;;13.65;82.12;100236.59;4995434;28;20050;-44
2023/08/25 05:23:05;;;;;;;7.07;2.17;;;;;;;13.67;82.04;100237.84;4995337;28;20080;-44
2023/08/25 05:25:31;;;;;;;4.05;2.15;;;;;;;13.66;82.23;100247.34;4995687;28;20097;-45
2023/08/25 05:27:58;;;;;;;3.90;1.85;;;;;;;13.67;81.78;100237.84;4995525;28;20042;-44
2023/08/25 05:30:25;;;;;;;5.60;2.25;;;;;;;13.67;81.91;100242.59;4995748;28;20078;-48
2023/08/25 05:32:52;;;;;;;6.32;2.50;;;;;;;13.68;81.84;100245.00;4994996;28;20125;-45
2023/08/25 05:35:19;;;;;;;4.45;2.38;;;;;;;13.65;82.13;100237.41;4995489;28;20137;-44
2023/08/25 05:37:45;;;;;;;4.82;2.28;;;;;;;13.66;82.10;100238.22;4994640;28;20050;-44
2023/08/25 05:40:13;;;;;;;4.97;1.90;;;;;;;13.65;81.99;100244.94;4995641;28;20042;-46
2023/08/25 05:42:39;;;;;;;6.38;2.33;;;;;;;13.64;82.05;100244.16;4995149;28;20126;-45
2023/08/25 05:45:07;;;;;;;2.92;1.90;;;;;;;13.68;81.99;100245.00;4995086;28;20050;-48
2023/08/25 05:47:34;;;;;;;4.60;1.63;;;;;;;13.71;81.75;100244.25;4992564;28;20089;-45
2023/08/25 05:50:02;;;;;;;4.00;2.00;;;;;;;13.72;82.02;100240.28;4995058;28;20050;-46
2023/08/25 05:52:29;;;;;;;6.15;1.88;;;;;;;13.72;82.08;100240.28;4994797;28;20047;-45
2023/08/25 05:54:55;;;;;;;9.02;3.88;;;;;;;13.75;81.93;100238.72;4995262;28;20050;-45
2023/08/25 05:57:22;;;;;;;3.10;1.55;;;;;;;13.75;82.03;100238.72;4994923;28;20062;-45
2023/08/25 05:59:49;;;;;;;6.68;1.90;;;;;;;13.75;81.97;100235.94;4994627;28;20050;-55
2023/08/25 06:02:16;;;;;;;5.78;1.70;;;;;;;13.76;82.23;100234.78;4986226;28;20054;-44
2023/08/25 06:04:42;;;;;;;5.35;1.77;;;;;;;13.78;82.10;100229.63;4995691;28;20053;-45
2023/08/25 06:07:10;;;;;;;2.70;1.40;;;;;;;13.78;81.88;100236.00;4994566;28;20101;-45
2023/08/25 06:09:37;;;;;;;3.35;1.38;;;;;;;13.81;82.04;100240.00;4994833;28;20141;-47
2023/08/25 06:12:04;;;;;;;2.53;1.10;;;;;;;13.84;82.05;100242.81;4994585;28;20046;-45
2023/08/25 06:14:31;;;;;;;5.05;1.30;;;;;;;13.86;81.94;100246.03;4994755;28;20042;-44
2023/08/25 06:17:02;;;;;;;3.28;1.52;;;;;;;13.88;81.93;100248.41;4993759;28;20448;-45
2023/08/25 06:19:30;;;;;;;2.00;1.10;;;;;;;13.85;82.17;100235.25;4994347;28;20496;-44
2023/08/25 06:21:57;;;;;;;4.40;1.20;;;;;;;13.87;81.98;100244.06;4994995;28;20038;-45
2023/08/25 06:24:25;;;;;;;3.13;1.45;;;;;;;13.90;81.90;100244.06;4994612;28;20068;-45
2023/08/25 06:26:52;;;;;;;2.80;1.20;;;;;;;13.90;82.11;100246.84;4993672;28;20492;-45
2023/08/25 06:29:19;;;;;;;4.28;1.60;;;;;;;13.88;82.16;100245.63;4994241;28;20042;-44
2023/08/25 06:31:46;;;;;;;8.13;1.40;;;;;;;13.93;82.04;100243.31;4989478;28;20101;-44
2023/08/25 06:34:14;;;;;;;4.28;1.08;;;;;;;13.97;81.84;100246.97;4992784;28;20138;-46
2023/08/25 06:36:40;;;;;;;2.55;1.25;;;;;;;13.92;81.99;100249.28;4993269;28;20042;-45
2023/08/25 06:39:08;;;;;;;3.42;1.13;;;;;;;13.88;81.85;100248.41;4994545;28;20081;-45
2023/08/25 06:41:35;;;;;;;2.05;1.05;;;;;;;13.83;82.09;100240.41;4991773;28;20061;-48
2023/08/25 06:44:02;;;;;;;3.72;1.10;;;;;;;13.82;82.16;100250.72;4989155;28;20054;-44
2023/08/25 06:46:29;;;;;;;3.22;2.33;;;;;;;13.83;82.07;100252.34;4994183;28;20042;-45
2023/08/25 06:48:56;;;;;;;4.03;1.35;;;;;;;13.84;81.99;100247.59;4993581;28;20042;-47
2023/08/25 06:51:23;;;;;;;5.07;1.88;;;;;;;13.82;81.69;100245.16;4993795;28;20049;-44
2023/08/25 06:53:49;;;;;;;3.92;1.17;;;;;;;13.80;81.85;100236.41;4993943;28;20400;-44
2023/08/25 06:56:16;;;;;;;5.60;1.50;;;;;;;13.77;81.95;100239.94;4994446;28;20145;-44
2023/08/25 06:58:43;;;;;;;2.10;1.35;;;;;;;13.80;82.08;100247.53;4993832;28;20038;-46
2023/08/25 07:01:10;;;;;;;1.73;0.88;;;;;;;13.84;81.93;100251.19;4993398;28;20050;-45
2023/08/25 07:03:37;;;;;;;1.80;0.95;;;;;;;13.88;81.88;100259.53;4992521;28;20142;-46
2023/08/25 07:06:05;;;;;;;5.43;1.02;;;;;;;13.92;82.01;100254.84;4989655;28;20043;-43
2023/08/25 07:08:32;;;;;;;6.75;1.48;;;;;;;13.99;81.82;100255.72;4990971;28;20049;-44
2023/08/25 07:10:59;;;;;;;3.63;1.63;;;;;;;14.03;81.83;100250.97;4993603;28;20058;-45
2023/08/25 07:13:25;;;;;;;2.92;0.90;;;;;;;14.06;81.86;100251.44;4996295;28;20060;-45
2023/08/25 07:15:52;;;;;;;5.65;1.70;;;;;;;14.16;81.89;100264.66;4993620;28;20229;-45
2023/08/25 07:18:19;;;;;;;5.47;1.23;;;;;;;14.26;81.82;100262.00;4992590;28;20050;-42
2023/08/25 07:20:46;;;;;;;2.83;0.73;;;;;;;14.34;81.70;100260.09;4993347;28;20046;-42
2023/08/25 07:23:12;;;;;;;7.88;1.20;;;;;;;14.41;81.25;100254.59;4993390;28;20118;-44
2023/08/25 07:25:43;;;;;;;4.78;1.27;;;;;;;14.40;81.23;100241.88;4993200;28;20488;-43
2023/08/25 07:28:11;;;;;;;6.28;0.98;;;;;;;14.40;81.46;100253.03;4974661;28;20104;-45
2023/08/25 07:30:38;;;;;;;2.55;1.00;;;;;;;14.38;81.26;100249.78;4993592;28;20496;-45
2023/08/25 07:33:07;;;;;;;1.73;0.60;;;;;;;14.37;81.59;100249.00;4988360;28;20045;-46
2023/08/25 07:35:35;;;;;;;2.80;1.05;;;;;;;14.40;81.14;100253.03;4988152;28;20093;-44
2023/08/25 07:38:03;;;;;;;5.25;1.02;;;;;;;14.39;81.22;100251.41;4986932;28;20039;-47
2023/08/25 07:40:31;;;;;;;5.50;0.93;;;;;;;14.43;81.32;100250.25;4985179;28;20048;-44
2023/08/25 07:43:01;;;;;;;5.22;0.82;;;;;;;14.53;81.29;100245.97;4988431;28;20085;-47
2023/08/25 07:45:29;;;;;;;5.05;1.10;;;;;;;14.55;81.22;100249.19;4992735;28;20053;-45
2023/08/25 07:47:59;;;;;;;3.83;0.75;;;;;;;14.56;81.03;100248.00;4995534;28;20061;-44
2023/08/25 07:50:27;;;;;;;4.32;1.05;;;;;;;14.60;81.13;100246.84;4992050;28;20050;-45
2023/08/25 07:52:54;;;;;;;1.80;1.05;;;;;;;14.67;81.23;100250.88;4990329;28;20543;-46
2023/08/25 07:55:21;;;;;;;2.72;0.70;;;;;;;14.77;81.13;100253.75;4992318;28;20098;-44
2023/08/25 07:57:49;;;;;;;1.55;0.85;;;;;;;14.85;80.84;100249.81;4992883;28;20077;-46
2023/08/25 08:00:17;;;;;;;1.85;0.77;;;;;;;14.92;80.84;100244.31;4992431;28;20054;-43
2023/08/25 08:02:46;;;;;;;3.50;0.70;;;;;;;15.08;80.95;100244.84;4992417;28;20054;-44
2023/08/25 08:05:17;;;;;;;2.72;0.52;;;;;;;15.25;81.00;100249.72;4992763;28;20052;-43
2023/08/25 08:07:47;;;;;;;2.03;0.70;;;;;;;15.45;80.83;100247.47;4973349;28;20050;-45
2023/08/25 08:10:15;;;;;;;4.35;1.08;;;;;;;15.73;81.29;100256.00;4969701;28;20054;-45
2023/08/25 08:12:45;;;;;;;5.80;0.68;;;;;;;16.00;80.83;100255.72;4983449;28;20133;-45
2023/08/25 08:15:13;;;;;;;1.17;0.60;;;;;;;16.14;80.36;100251.00;4980173;28;20141;-45
2023/08/25 08:17:40;;;;;;;4.53;0.60;;;;;;;16.29;79.95;100249.81;4975306;28;20066;-44
2023/08/25 08:20:12;;;;;;;3.28;1.00;;;;;;;16.41;79.89;100252.22;4989293;28;20124;-46
2023/08/25 08:22:40;;;;;;;4.93;0.85;;;;;;;16.51;79.48;100247.06;4991720;28;20042;-44
2023/08/25 08:25:10;;;;;;;0.85;0.47;;;;;;;16.55;79.20;100253.50;4973767;28;20057;-42
2023/08/25 08:27:40;;;;;;;5.50;0.60;;;;;;;16.63;79.22;100253.09;4990360;28;20837;-42
2023/08/25 08:30:09;;;;;;;2.00;0.70;;;;;;;16.67;78.92;100251.13;4990625;28;20053;-42
2023/08/25 08:32:36;;;;;;;3.22;0.85;;;;;;;16.78;79.23;100253.91;4981051;28;20047;-43
2023/08/25 08:35:07;;;;;;;1.50;0.93;;;;;;;16.83;78.52;100245.94;4985674;28;20051;-42
2023/08/25 08:37:35;;;;;;;2.33;0.70;;;;;;;17.01;78.42;100248.72;4988119;28;20070;-42
2023/08/25 08:40:05;;;;;;;5.40;0.70;;;;;;;17.15;77.28;100254.31;4989805;28;20042;-42
2023/08/25 08:42:34;;;;;;;4.20;0.70;;;;;;;17.50;77.51;100240.22;4984866;28;20080;-43
2023/08/25 08:45:07;;;;;;;2.58;0.55;;;;;;;18.17;76.98;100237.19;4971026;28;20046;-44
2023/08/25 08:47:37;;;;;;;2.45;0.65;;;;;;;18.73;74.94;100240.84;4990844;28;20042;-43
2023/08/25 08:50:07;;;;;;;5.57;0.90;;;;;;;18.61;73.61;100244.94;4991657;28;20129;-43
2023/08/25 08:52:34;;;;;;;2.25;0.63;;;;;;;18.40;72.79;100242.25;4991705;28;20514;-44
2023/08/25 08:55:07;;;;;;;7.60;1.80;;;;;;;18.15;72.09;100242.41;4992107;28;20443;-43
2023/08/25 08:57:34;;;;;;;6.13;0.80;;;;;;;18.27;72.52;100245.94;4991999;28;20050;-44
2023/08/25 09:00:03;;;;;;;1.90;0.55;;;;;;;18.88;72.08;100247.16;4986057;28;20094;-43
2023/08/25 09:02:32;;;;;;;2.00;1.42;;;;;;;19.86;69.99;100246.13;4991317;28;20054;-44
2023/08/25 09:05:00;;;;;;;3.63;0.68;;;;;;;20.67;68.11;100247.06;4991647;28;20496;-44
2023/08/25 09:07:31;;;;;;;2.15;1.13;;;;;;;21.15;65.85;100246.69;4986387;28;20141;-46
2023/08/25 09:09:59;;;;;;;3.80;0.90;;;;;;;21.55;64.40;100242.72;4991663;28;20504;-44
2023/08/25 09:12:26;;;;;;;4.40;0.70;;;;;;;21.73;62.71;100248.81;4980388;28;20047;-43
2023/08/25 09:14:53;;;;;;;2.20;0.60;;;;;;;22.21;61.34;100245.38;4988498;28;20114;-44
2023/08/25 09:17:21;;;;;;;1.90;0.52;;;;;;;22.79;60.11;100237.25;4988703;28;20058;-44
2023/08/25 09:19:49;;;;;;;3.22;0.90;;;;;;;23.70;57.80;100238.88;4984439;28;20436;-43
2023/08/25 09:22:17;;;;;;;4.55;0.65;;;;;;;24.36;55.94;100247.44;4983233;28;20058;-46
2023/08/25 09:24:44;;;;;;;0.88;0.60;;;;;;;25.17;54.09;100235.53;4991374;28;20094;-43
2023/08/25 09:27:23;;;;;;;3.33;0.80;;;;;;;25.23;53.08;100250.72;4990631;28;20496;-44
2023/08/25 09:30:04;;;;;;;1.98;0.55;;;;;;;24.55;51.85;100240.78;4992067;28;20596;-44
2023/08/25 09:32:32;;;;;;;3.80;0.85;;;;;;;23.49;52.68;100240.28;4990821;28;20081;-43
2023/08/25 09:35:11;;;;;;;3.15;0.52;;;;;;;22.60;53.77;100235.25;4987823;28;20496;-43
2023/08/25 09:37:42;;;;;;;4.05;0.60;;;;;;;21.80;54.77;100228.94;4986696;28;20049;-44
2023/08/25 09:40:15;;;;;;;1.95;0.30;;;;;;;21.00;55.94;100240.47;4988649;28;20130;-45
2023/08/25 09:42:42;;;;;;;5.07;0.90;;;;;;;20.24;57.12;100241.25;4972585;28;20057;-43
2023/08/25 09:45:11;;;;;;;3.08;0.60;;;;;;;19.81;57.95;100234.56;4990253;28;20054;-44
2023/08/25 09:47:38;;;;;;;4.03;0.80;;;;;;;19.57;58.71;100239.25;4977299;28;20550;-42
2023/08/25 09:50:05;;;;;;;4.65;0.80;;;;;;;19.49;59.39;100232.13;4986896;28;20078;-43
2023/08/25 09:52:38;;;;;;;2.97;0.82;;;;;;;19.81;59.13;100243.81;4990006;28;20446;-44
2023/08/25 09:55:05;;;;;;;2.63;0.57;;;;;;;20.21;58.28;100247.69;4988578;28;20488;-44
2023/08/25 09:57:32;;;;;;;4.78;0.70;;;;;;;20.43;57.71;100251.84;4975345;28;20145;-46
2023/08/25 10:00:00;;;;;;;4.45;0.68;;;;;;;20.32;57.76;100253.19;4993864;28;20539;-43
2023/08/25 10:02:27;;;;;;;2.38;0.73;;;;;;;20.11;57.82;100242.22;4994947;28;20054;-45
2023/08/25 10:04:56;;;;;;;2.88;0.75;;;;;;;19.92;58.01;100250.09;4993921;28;20050;-44
2023/08/25 10:07:23;;;;;;;2.65;0.75;;;;;;;19.74;58.20;100246.69;4993827;28;20101;-43
2023/08/25 10:09:50;;;;;;;2.75;0.65;;;;;;;19.55;58.88;100258.56;4994606;28;20053;-42
2023/08/25 10:12:18;;;;;;;3.58;1.27;;;;;;;19.32;59.19;100261.19;4994502;28;20038;-43
2023/08/25 10:14:49;;;;;;;2.50;0.70;;;;;;;19.16;59.82;100252.50;4994412;28;20043;-42
2023/08/25 10:17:17;;;;;;;4.70;0.82;;;;;;;19.04;59.99;100250.19;4994906;28;20054;-44
2023/08/25 10:19:47;;;;;;;5.70;1.40;;;;;;;19.00;60.24;100255.84;4995146;28;20054;-43
2023/08/25 10:22:15;;;;;;;4.75;1.17;;;;;;;18.90;60.42;100261.56;4997856;28;20049;-48
2023/08/25 10:24:43;;;;;;;6.82;0.90;;;;;;;18.82;60.28;100258.78;4960102;28;20065;-42
2023/08/25 10:27:11;;;;;;;7.07;1.02;;;;;;;18.76;60.40;100254.84;4974965;28;20133;-46
2023/08/25 10:29:39;;;;;;;3.38;0.80;;;;;;;18.76;60.69;100260.47;4996250;28;20050;-42
2023/08/25 10:32:06;;;;;;;3.60;0.90;;;;;;;18.93;60.42;100260.72;4991263;28;20101;-42
2023/08/25 10:34:44;;;;;;;4.72;0.60;;;;;;;19.08;60.32;100256.59;4981980;28;20492;-42
2023/08/25 10:37:24;;;;;;;6.10;1.20;;;;;;;19.20;60.25;100270.91;4992827;28;20082;-47
2023/08/25 10:39:52;;;;;;;3.03;1.13;;;;;;;19.34;59.89;100269.97;4980175;28;20058;-47
2023/08/25 10:42:23;;;;;;;2.65;0.63;;;;;;;19.68;59.57;100251.19;4974795;28;20496;-45
2023/08/25 10:44:55;;;;;;;3.50;0.80;;;;;;;20.02;58.48;100265.22;4988541;28;20046;-43
2023/08/25 10:47:23;;;;;;;3.85;0.82;;;;;;;20.24;57.81;100260.16;4987999;28;20397;-43
2023/08/25 10:50:03;;;;;;;2.10;0.80;;;;;;;20.22;57.63;100262.56;4990619;28;20058;-43
2023/08/25 10:52:31;;;;;;;5.60;0.93;;;;;;;20.05;57.73;100256.75;4973359;28;20046;-43
2023/08/25 10:55:25;;;;;;;4.38;1.15;;;;;;;20.85;56.93;100258.03;4975547;28;20447;-42
2023/08/25 10:57:53;;;;;;;4.97;1.35;;;;;;;21.49;56.04;100254.91;4989311;28;20675;-43
2023/08/25 11:00:29;;;;;;;7.82;1.00;;;;;;;21.75;55.21;100259.63;4992985;28;20052;-42
2023/08/25 11:02:57;;;;;;;3.42;0.80;;;;;;;21.67;55.39;100249.72;4990576;28;20404;-43
2023/08/25 11:05:28;;;;;;;1.70;0.50;;;;;;;21.41;55.75;100256.28;5007631;28;20038;-43
2023/08/25 11:07:55;;;;;;;2.50;0.75;;;;;;;21.39;55.57;100258.72;4991617;28;20061;-46
2023/08/25 11:10:27;;;;;;;2.30;0.70;;;;;;;21.33;55.44;100263.25;5008451;28;20048;-43
2023/08/25 11:12:54;;;;;;;3.58;0.82;;;;;;;21.08;55.54;100252.44;4984541;28;20447;-42
2023/08/25 11:15:37;;;;;;;2.38;0.50;;;;;;;20.98;56.16;100254.19;4978876;28;20081;-44
2023/08/25 11:18:04;;;;;;;5.90;1.85;;;;;;;21.05;55.66;100244.81;4992230;28;20050;-43
2023/08/25 11:20:33;;;;;;;6.47;0.90;;;;;;;20.95;55.66;100245.78;4992664;28;20068;-45
2023/08/25 11:23:00;;;;;;;5.82;1.38;;;;;;;20.93;55.87;100236.97;4990264;28;20173;-43
2023/08/25 11:25:45;;;;;;;2.38;0.55;;;;;;;20.83;55.45;100230.31;4992587;28;20057;-43
2023/08/25 11:28:12;;;;;;;3.85;1.75;;;;;;;20.70;56.35;100239.78;4994978;28;20073;-42